Time;durP1;ratioP1;P1;durP2;ratioP2;P2;SDS_P1;SDS_P2;PMS_P1;PMS_P2;Temp;Humidity;BMP_temperature;BMP_pressure;BME280_temperature;BME280_humidity;BME280_pressure;Samples;Min_cycle;Max_cycle;Signal;HPM_P1;HPM_P2
2023/10/22 00:00:54;;;;;;;4.25;2.50;;;;;;;20.26;52.59;99606.47;5062239;28;20481;-76
2023/10/22 00:03:20;;;;;;;4.85;2.65;;;;;;;20.25;52.51;99608.34;5064577;28;20052;-76
2023/10/22 00:05:45;;;;;;;3.83;2.88;;;;;;;20.25;52.59;99616.44;5062113;28;20024;-76
2023/10/22 00:08:10;;;;;;;3.88;2.28;;;;;;;20.21;52.81;99609.81;5046096;28;20032;-76
2023/10/22 00:10:35;;;;;;;4.15;2.28;;;;;;;20.20;52.86;99616.25;5063003;28;20058;-76
2023/10/22 00:13:01;;;;;;;5.22;2.55;;;;;;;20.22;52.82;99616.88;5063099;28;20037;-76
2023/10/22 00:15:27;;;;;;;3.30;2.53;;;;;;;20.22;52.94;99616.88;5063733;28;20040;-76
2023/10/22 00:17:53;;;;;;;5.47;2.53;;;;;;;20.16;52.84;99613.13;5045865;28;20051;-76
2023/10/22 00:20:19;;;;;;;3.95;2.35;;;;;;;20.06;52.68;99599.25;5047271;28;20478;-76
2023/10/22 00:22:44;;;;;;;4.07;2.70;;;;;;;20.12;52.71;99617.28;5061131;28;20032;-77
2023/10/22 00:25:10;;;;;;;3.63;2.40;;;;;;;20.12;52.77;99611.88;5045187;28;20040;-76
2023/10/22 00:27:35;;;;;;;3.08;2.03;;;;;;;20.11;53.05;99610.22;5062483;28;20553;-76
2023/10/22 00:30:01;;;;;;;2.47;1.90;;;;;;;20.14;52.96;99628.72;5061997;28;20056;-76
2023/10/22 00:32:26;;;;;;;4.85;2.47;;;;;;;20.17;52.82;99630.16;5045881;28;20525;-76
2023/10/22 00:34:51;;;;;;;3.85;2.47;;;;;;;19.83;52.80;99582.63;5062515;28;20048;-76
2023/10/22 00:37:17;;;;;;;3.10;2.17;;;;;;;20.15;52.78;99624.97;5043685;28;20067;-76
2023/10/22 00:39:43;;;;;;;4.18;2.35;;;;;;;20.14;52.82;99636.81;5045128;28;20088;-76
2023/10/22 00:42:08;;;;;;;5.97;2.47;;;;;;;20.14;52.88;99628.72;5062200;28;20090;-76
2023/10/22 00:44:35;;;;;;;3.35;2.05;;;;;;;19.92;53.07;99595.72;5062364;28;20029;-76
2023/10/22 00:47:01;;;;;;;3.42;2.10;;;;;;;20.12;52.94;99630.78;5044535;28;20091;-76
2023/10/22 00:49:27;;;;;;;3.38;2.22;;;;;;;20.09;53.24;99623.13;5062257;28;20040;-76
2023/10/22 00:51:52;;;;;;;4.80;2.30;;;;;;;20.11;52.81;99631.00;5044926;28;20048;-75
2023/10/22 00:54:19;;;;;;;3.78;2.20;;;;;;;19.56;53.18;99535.91;5062016;28;20021;-75
2023/10/22 00:56:45;;;;;;;3.45;2.08;;;;;;;20.10;52.91;99627.47;5060964;28;20048;-75
2023/10/22 00:59:11;;;;;;;4.60;2.25;;;;;;;20.09;53.03;99627.66;5062080;28;20040;-75
2023/10/22 01:01:37;;;;;;;3.97;2.10;;;;;;;20.06;53.24;99617.31;5061222;28;20036;-75
2023/10/22 01:04:03;;;;;;;4.28;2.58;;;;;;;20.03;53.12;99612.31;5056919;28;20034;-75
2023/10/22 01:06:30;;;;;;;3.15;2.03;;;;;;;19.94;53.24;99600.91;5061081;28;20040;-76
2023/10/22 01:08:55;;;;;;;3.85;2.50;;;;;;;19.75;53.15;99572.84;5045782;28;20163;-75
2023/10/22 01:11:20;;;;;;;3.58;2.22;;;;;;;19.97;52.91;99603.19;5059672;28;20061;-75
2023/10/22 01:13:46;;;;;;;3.47;2.22;;;;;;;20.05;52.77;99618.31;5045558;28;20506;-75
2023/10/22 01:16:11;;;;;;;4.28;2.28;;;;;;;20.04;53.11;99620.19;5062328;28;20061;-75
2023/10/22 01:18:36;;;;;;;3.60;2.08;;;;;;;20.01;53.08;99623.31;5061975;28;20129;-75
2023/10/22 01:21:03;;;;;;;4.75;2.45;;;;;;;20.03;53.19;99633.91;5057970;28;20044;-75
2023/10/22 01:23:29;;;;;;;3.08;1.90;;;;;;;19.80;53.05;99597.38;5063128;28;20021;-75
2023/10/22 01:25:54;;;;;;;3.00;2.08;;;;;;;19.87;52.96;99617.06;5043870;28;20084;-75
2023/10/22 01:28:19;;;;;;;2.85;1.92;;;;;;;19.59;53.22;99565.16;5061771;28;20116;-76
2023/10/22 01:30:45;;;;;;;3.45;2.60;;;;;;;19.98;53.26;99634.50;5062812;28;20040;-76
2023/10/22 01:33:10;;;;;;;3.55;1.77;;;;;;;19.96;53.01;99637.44;5061606;28;20021;-76
2023/10/22 01:35:35;;;;;;;3.15;1.92;;;;;;;19.86;53.02;99618.09;5059626;28;20057;-76
2023/10/22 01:38:01;;;;;;;4.65;2.30;;;;;;;19.98;53.21;99635.34;5045420;28;20037;-76
2023/10/22 01:40:26;;;;;;;3.33;2.25;;;;;;;19.94;53.21;99634.09;5043547;28;20397;-76
2023/10/22 01:42:52;;;;;;;4.32;1.83;;;;;;;19.98;52.95;99645.31;5044654;28;20029;-76
2023/10/22 01:45:18;;;;;;;2.45;1.73;;;;;;;19.96;52.96;99639.28;5044850;28;20683;-75
2023/10/22 01:47:43;;;;;;;3.28;2.42;;;;;;;19.77;53.28;99610.44;5045163;28;20043;-75
2023/10/22 01:50:08;;;;;;;2.85;1.70;;;;;;;19.95;53.16;99640.31;5045392;28;20100;-76
2023/10/22 01:52:34;;;;;;;3.50;2.00;;;;;;;19.64;53.11;99595.06;5061783;28;20499;-75
2023/10/22 01:54:59;;;;;;;3.17;1.77;;;;;;;19.53;53.37;99574.06;5061025;28;20029;-76
2023/10/22 01:57:24;;;;;;;3.03;1.80;;;;;;;19.93;53.13;99640.53;5048341;28;20048;-76
2023/10/22 01:59:50;;;;;;;2.97;2.22;;;;;;;19.86;53.09;99630.75;5065215;28;20036;-75
2023/10/22 02:02:16;;;;;;;3.47;1.80;;;;;;;19.87;52.95;99635.13;5065517;28;20029;-75
2023/10/22 02:04:41;;;;;;;4.45;2.03;;;;;;;19.87;53.42;99632.41;5066145;28;20037;-75
2023/10/22 02:07:06;;;;;;;2.42;1.80;;;;;;;19.54;53.16;99583.78;5046072;28;20087;-75
2023/10/22 02:09:32;;;;;;;3.67;1.83;;;;;;;19.92;52.99;99640.72;5063834;28;20029;-75
2023/10/22 02:11:57;;;;;;;4.63;2.35;;;;;;;19.87;53.02;99645.91;5065934;28;20049;-76
2023/10/22 02:14:22;;;;;;;2.55;1.52;;;;;;;19.67;53.02;99616.22;5066161;28;20059;-76
2023/10/22 02:16:48;;;;;;;2.92;1.80;;;;;;;19.81;53.01;99639.47;5064254;28;20033;-76
2023/10/22 02:19:13;;;;;;;3.05;1.88;;;;;;;19.89;52.97;99655.47;5048282;28;20097;-75
2023/10/22 02:21:38;;;;;;;2.97;1.85;;;;;;;19.89;53.25;99660.03;5064724;28;20489;-76
2023/10/22 02:24:04;;;;;;;2.75;1.90;;;;;;;19.56;53.05;99608.69;5064847;28;20033;-76
2023/10/22 02:26:29;;;;;;;2.20;1.70;;;;;;;19.88;53.46;99666.44;5064178;28;20067;-76
2023/10/22 02:28:55;;;;;;;2.83;1.83;;;;;;;19.86;52.89;99663.97;5064423;28;20410;-75
2023/10/22 02:31:20;;;;;;;4.38;1.60;;;;;;;19.88;53.14;99674.53;5064119;28;20247;-76
2023/10/22 02:33:45;;;;;;;3.38;1.98;;;;;;;19.82;53.37;99678.06;5064486;28;20035;-75
2023/10/22 02:36:11;;;;;;;2.30;1.52;;;;;;;19.80;53.45;99670.19;5046666;28;20028;-75
2023/10/22 02:38:39;;;;;;;2.25;1.60;;;;;;;19.71;53.21;99680.34;5065773;28;20102;-75
2023/10/22 02:41:04;;;;;;;2.78;1.67;;;;;;;19.64;52.98;99662.47;5047742;28;20112;-75
2023/10/22 02:43:33;;;;;;;2.40;1.40;;;;;;;19.29;53.39;99597.03;5045824;28;20064;-75
2023/10/22 02:45:58;;;;;;;2.20;1.67;;;;;;;19.63;53.38;99661.66;5047744;28;20033;-76
2023/10/22 02:48:24;;;;;;;2.17;1.80;;;;;;;19.83;53.13;99694.03;5029480;28;20067;-76
2023/10/22 02:50:49;;;;;;;4.22;1.85;;;;;;;19.82;53.43;99700.47;5064080;28;20499;-75
2023/10/22 02:53:16;;;;;;;2.13;1.58;;;;;;;19.82;53.00;99703.16;5044984;28;20040;-76
2023/10/22 02:55:42;;;;;;;2.80;1.88;;;;;;;19.60;53.38;99669.28;5045708;28;20108;-75
2023/10/22 02:58:08;;;;;;;2.92;1.58;;;;;;;19.75;53.38;99693.38;5047076;28;20029;-75
2023/10/22 03:00:33;;;;;;;3.15;1.70;;;;;;;19.76;53.27;99711.25;5047033;28;20033;-75
2023/10/22 03:02:58;;;;;;;2.35;1.45;;;;;;;19.51;53.21;99674.00;5047981;28;20052;-75
2023/10/22 03:05:24;;;;;;;3.92;1.45;;;;;;;19.80;53.06;99724.13;5063389;28;20041;-75
2023/10/22 03:07:49;;;;;;;3.70;1.65;;;;;;;19.71;53.34;99719.97;5063757;28;20077;-75
2023/10/22 03:10:15;;;;;;;2.83;1.60;;;;;;;19.79;53.46;99730.53;5064513;28;20053;-75
2023/10/22 03:12:40;;;;;;;2.63;1.38;;;;;;;19.68;53.52;99721.19;5064912;28;20025;-75
2023/10/22 03:15:07;;;;;;;2.55;1.55;;;;;;;19.60;53.16;99704.31;5065123;28;20421;-75
2023/10/22 03:17:32;;;;;;;1.92;1.30;;;;;;;19.78;53.40;99739.66;5064769;28;20033;-75
2023/10/22 03:19:57;;;;;;;2.45;1.38;;;;;;;19.77;53.51;99742.56;5047014;28;20021;-75
2023/10/22 03:22:24;;;;;;;1.90;1.52;;;;;;;19.77;53.29;99734.47;5046972;28;20040;-76
2023/10/22 03:24:50;;;;;;;2.78;1.52;;;;;;;19.71;53.07;99745.06;5064203;28;20027;-76
2023/10/22 03:27:15;;;;;;;2.63;1.63;;;;;;;19.60;53.59;99728.59;5046431;28;20127;-76
2023/10/22 03:29:41;;;;;;;3.28;1.65;;;;;;;19.67;53.15;99741.09;5046929;28;20032;-76
2023/10/22 03:32:09;;;;;;;1.98;1.27;;;;;;;19.57;53.09;99737.06;5046558;28;20037;-76
2023/10/22 03:34:34;;;;;;;3.33;1.50;;;;;;;19.73;53.24;99753.75;5063733;28;20107;-76
2023/10/22 03:37:02;;;;;;;1.60;1.25;;;;;;;19.72;53.33;99760.19;5048516;28;20048;-76
2023/10/22 03:39:27;;;;;;;2.00;1.15;;;;;;;19.58;53.36;99742.28;5047030;28;20043;-76
2023/10/22 03:41:52;;;;;;;1.20;1.10;;;;;;;19.70;53.52;99769.50;5046013;28;20029;-76
2023/10/22 03:44:18;;;;;;;1.63;1.33;;;;;;;19.71;53.34;99773.91;5064114;28;20041;-75
2023/10/22 03:46:46;;;;;;;1.92;1.15;;;;;;;19.68;53.76;99774.28;5061187;28;20088;-75
2023/10/22 03:49:11;;;;;;;2.88;1.50;;;;;;;19.69;53.59;99779.47;5047037;28;20029;-76
2023/10/22 03:51:37;;;;;;;2.55;1.30;;;;;;;19.58;53.26;99774.63;5062879;28;20037;-76
2023/10/22 03:54:03;;;;;;;1.85;1.20;;;;;;;19.62;53.72;99783.16;5046544;28;20147;-76
2023/10/22 03:56:28;;;;;;;3.30;1.38;;;;;;;19.66;53.22;99801.44;5045276;28;20028;-76
2023/10/22 03:58:53;;;;;;;2.60;1.75;;;;;;;19.66;53.18;99793.34;5062370;28;20028;-75
2023/10/22 04:01:19;;;;;;;2.20;1.38;;;;;;;19.61;53.60;99801.22;5045818;28;20025;-75
2023/10/22 04:03:44;;;;;;;2.22;1.50;;;;;;;19.66;53.43;99819.47;5047391;28;20032;-75
2023/10/22 04:06:09;;;;;;;2.78;1.52;;;;;;;19.65;53.36;99821.34;5062161;28;20044;-75
2023/10/22 04:08:34;;;;;;;2.55;1.42;;;;;;;19.64;53.61;99830.47;5045070;28;20044;-75
2023/10/22 04:11:01;;;;;;;2.67;1.40;;;;;;;19.64;53.70;99843.13;5063357;28;20068;-75
2023/10/22 04:13:27;;;;;;;3.33;1.20;;;;;;;19.64;53.33;99845.81;5063327;28;20055;-75
2023/10/22 04:15:52;;;;;;;1.98;1.33;;;;;;;19.61;53.26;99857.00;5063539;28;20029;-75
2023/10/22 04:18:19;;;;;;;1.30;1.08;;;;;;;19.62;53.59;99851.41;5029063;28;20037;-75
2023/10/22 04:20:44;;;;;;;2.15;1.23;;;;;;;19.46;53.60;99840.94;5062319;28;20048;-75
2023/10/22 04:23:10;;;;;;;1.92;1.27;;;;;;;19.61;53.41;99870.47;5045279;28;20033;-75
2023/10/22 04:25:38;;;;;;;2.80;1.40;;;;;;;19.60;53.71;99880.41;5042932;28;20041;-75
2023/10/22 04:28:03;;;;;;;2.10;1.30;;;;;;;19.61;53.70;99886.66;5060564;28;20039;-75
2023/10/22 04:30:28;;;;;;;1.90;1.30;;;;;;;19.56;53.76;99887.22;5046866;28;20080;-76
2023/10/22 04:32:53;;;;;;;2.00;1.35;;;;;;;19.53;53.34;99887.63;5063608;28;20029;-75
2023/10/22 04:35:19;;;;;;;1.50;1.10;;;;;;;19.58;53.39;99903.19;5061856;28;20484;-75
2023/10/22 04:37:44;;;;;;;2.45;1.30;;;;;;;19.53;53.39;99897.56;5063787;28;20043;-75
2023/10/22 04:40:10;;;;;;;1.80;1.35;;;;;;;19.57;53.49;99912.31;5061743;28;20025;-74
2023/10/22 04:42:35;;;;;;;1.73;1.10;;;;;;;19.57;53.73;99917.72;5045709;28;20027;-75
2023/10/22 04:45:00;;;;;;;2.20;1.13;;;;;;;19.55;53.45;99928.72;5061931;28;20021;-75
2023/10/22 04:47:25;;;;;;;1.23;1.08;;;;;;;19.55;53.70;99942.19;5063881;28;20112;-75
2023/10/22 04:49:51;;;;;;;1.77;1.30;;;;;;;19.55;53.77;99944.06;5062035;28;20052;-74
2023/10/22 04:52:37;;;;;;;2.47;1.30;;;;;;;19.41;53.70;99935.88;5061961;28;20024;-75
2023/10/22 04:55:02;;;;;;;3.65;1.00;;;;;;;19.53;53.64;99955.00;5059635;28;20490;-75
2023/10/22 04:57:27;;;;;;;1.60;1.20;;;;;;;19.53;53.67;99967.66;5061721;28;20037;-75
2023/10/22 04:59:53;;;;;;;1.98;1.13;;;;;;;19.44;53.72;99967.81;5061967;28;20063;-75
2023/10/22 05:02:18;;;;;;;1.40;1.10;;;;;;;19.52;53.51;99982.19;5061665;28;20089;-75
2023/10/22 05:04:48;;;;;;;1.52;1.27;;;;;;;19.29;53.40;99948.22;5043585;28;20037;-76
2023/10/22 05:07:14;;;;;;;2.38;1.25;;;;;;;19.51;53.53;99989.44;5043577;28;20032;-75
2023/10/22 05:09:39;;;;;;;1.88;1.20;;;;;;;19.37;53.61;99974.16;5063053;28;20032;-76
2023/10/22 05:12:05;;;;;;;1.75;1.20;;;;;;;19.28;53.92;99962.69;5060765;28;20118;-77
2023/10/22 05:14:31;;;;;;;1.63;1.10;;;;;;;19.49;53.98;100000.41;5044879;28;20025;-77
2023/10/22 05:16:56;;;;;;;1.85;1.20;;;;;;;19.47;53.92;100015.94;5044429;28;20044;-77
2023/10/22 05:19:22;;;;;;;1.65;0.95;;;;;;;19.34;53.64;99996.97;5045160;28;20470;-76
2023/10/22 05:21:47;;;;;;;1.50;0.98;;;;;;;19.49;54.04;100024.66;5044394;28;20033;-76
2023/10/22 05:24:12;;;;;;;2.53;0.93;;;;;;;19.40;54.00;100020.44;5062634;28;20025;-76
2023/10/22 05:26:38;;;;;;;2.10;1.15;;;;;;;19.30;53.73;99998.38;5039993;28;20092;-76
2023/10/22 05:29:04;;;;;;;1.33;1.00;;;;;;;19.49;53.87;100045.41;5063446;28;20036;-76
2023/10/22 05:31:30;;;;;;;1.77;1.13;;;;;;;19.48;53.87;100047.28;5046925;28;20118;-75
2023/10/22 05:33:55;;;;;;;1.20;1.10;;;;;;;19.28;53.83;100023.84;5067083;28;20021;-75
2023/10/22 05:36:21;;;;;;;1.85;1.10;;;;;;;19.48;54.14;100063.44;5047290;28;20052;-78
2023/10/22 05:38:47;;;;;;;1.45;0.90;;;;;;;19.47;54.14;100069.03;5050749;28;20048;-76
2023/10/22 05:41:27;;;;;;;2.40;1.20;;;;;;;19.32;54.23;100058.31;5047817;28;20474;-76
2023/10/22 05:43:56;;;;;;;1.17;1.00;;;;;;;19.47;54.35;100086.03;5046174;28;20048;-76
2023/10/22 05:46:25;;;;;;;2.80;1.10;;;;;;;19.41;54.18;100083.28;5047185;28;20071;-78
2023/10/22 05:48:50;;;;;;;4.85;1.25;;;;;;;19.28;54.60;100058.88;5066715;28;20103;-75
2023/10/22 05:51:15;;;;;;;1.27;1.10;;;;;;;19.45;54.53;100100.72;5054187;28;20465;-75
2023/10/22 05:53:41;;;;;;;1.67;1.10;;;;;;;19.39;54.64;100088.88;5066747;28;20394;-77
2023/10/22 05:56:06;;;;;;;1.35;1.20;;;;;;;19.23;54.36;100075.63;5062451;28;20033;-77
2023/10/22 05:58:31;;;;;;;2.35;1.30;;;;;;;19.23;54.81;100081.84;5046270;28;20032;-77
2023/10/22 06:00:57;;;;;;;1.35;0.90;;;;;;;19.41;55.04;100113.78;5065806;28;20049;-76
2023/10/22 06:03:22;;;;;;;1.67;1.20;;;;;;;19.09;54.70;100076.50;5048645;28;20385;-76
2023/10/22 06:05:48;;;;;;;2.00;1.55;;;;;;;19.20;55.06;100090.34;5065476;28;20032;-78
2023/10/22 06:08:13;;;;;;;1.48;1.10;;;;;;;19.17;54.98;100089.88;5033850;28;20020;-76
2023/10/22 06:10:39;;;;;;;2.35;1.65;;;;;;;19.32;55.23;100122.16;5029233;28;20134;-77
2023/10/22 06:13:05;;;;;;;2.03;1.30;;;;;;;19.44;55.21;100150.28;5062872;28;20036;-76
2023/10/22 06:15:30;;;;;;;3.05;1.77;;;;;;;19.41;55.11;100138.03;5046700;28;20028;-77
2023/10/22 06:17:56;;;;;;;4.03;1.40;;;;;;;19.08;55.24;100099.09;5053078;28;20031;-77
2023/10/22 06:20:21;;;;;;;2.00;1.50;;;;;;;19.30;55.42;100135.84;5047487;28;20035;-78
2023/10/22 06:22:46;;;;;;;3.28;1.83;;;;;;;19.44;55.15;100167.28;5065997;28;20080;-77
2023/10/22 06:25:11;;;;;;;3.13;1.50;;;;;;;19.39;55.25;100164.34;5065030;28;20033;-76
2023/10/22 06:27:37;;;;;;;3.45;1.92;;;;;;;19.30;55.51;100160.09;5047725;28;20083;-76
2023/10/22 06:30:02;;;;;;;5.60;1.80;;;;;;;19.26;55.37;100156.09;5047761;28;20059;-74
2023/10/22 06:32:28;;;;;;;3.28;1.70;;;;;;;19.44;55.74;100190.72;5065720;28;20037;-81
2023/10/22 06:34:53;;;;;;;3.25;1.73;;;;;;;19.44;55.74;100190.72;5045674;28;20029;-75
2023/10/22 06:37:18;;;;;;;3.55;1.90;;;;;;;19.44;55.78;100199.66;5064560;28;20064;-75
2023/10/22 06:39:44;;;;;;;3.47;1.65;;;;;;;19.44;55.47;100202.34;5031124;28;20094;-75
2023/10/22 06:42:10;;;;;;;3.95;1.70;;;;;;;19.44;55.24;100205.03;5047308;28;20123;-76
2023/10/22 06:44:36;;;;;;;3.05;1.60;;;;;;;19.19;55.32;100180.25;5047327;28;20028;-76
2023/10/22 06:47:02;;;;;;;3.83;2.20;;;;;;;19.44;55.32;100221.22;5047210;28;20021;-77
2023/10/22 06:49:27;;;;;;;2.33;1.58;;;;;;;19.44;55.23;100215.00;5031155;28;20054;-76
2023/10/22 06:51:52;;;;;;;2.38;1.30;;;;;;;19.43;55.52;100222.25;5065536;28;20029;-75
2023/10/22 06:54:18;;;;;;;4.10;1.90;;;;;;;19.29;55.44;100206.13;5063790;28;20029;-76
2023/10/22 06:56:43;;;;;;;4.50;2.40;;;;;;;19.18;55.21;100189.38;5064650;28;20098;-76
2023/10/22 06:59:08;;;;;;;3.05;1.75;;;;;;;19.43;55.29;100235.72;5065254;28;20029;-76
2023/10/22 07:01:33;;;;;;;4.50;1.65;;;;;;;19.40;55.31;100229.88;5046831;28;20394;-77
2023/10/22 07:03:59;;;;;;;2.95;1.75;;;;;;;19.42;55.53;100236.75;5047996;28;20048;-77
2023/10/22 07:06:24;;;;;;;2.08;1.40;;;;;;;19.37;55.29;100239.19;5062164;28;20032;-77
2023/10/22 07:08:49;;;;;;;3.67;1.80;;;;;;;19.42;55.18;100260.19;5046111;28;20044;-76
2023/10/22 07:11:15;;;;;;;4.15;1.50;;;;;;;19.28;55.36;100232.19;5063456;28;20076;-77
2023/10/22 07:13:40;;;;;;;2.10;1.63;;;;;;;19.33;55.42;100245.97;5062767;28;20057;-77
2023/10/22 07:16:06;;;;;;;2.15;1.50;;;;;;;19.41;55.17;100269.28;5044644;28;20036;-77
2023/10/22 07:18:31;;;;;;;2.60;1.65;;;;;;;19.33;55.04;100256.75;5029072;28;20028;-76
2023/10/22 07:20:56;;;;;;;2.05;1.60;;;;;;;19.26;54.85;100245.03;5045079;28;20029;-76
2023/10/22 07:23:21;;;;;;;2.67;1.52;;;;;;;19.39;54.92;100279.44;5045433;28;20071;-76
2023/10/22 07:25:47;;;;;;;2.92;1.38;;;;;;;19.39;54.92;100280.25;5057223;28;20029;-76
2023/10/22 07:28:13;;;;;;;2.67;1.70;;;;;;;19.34;54.83;100271.06;5063786;28;20029;-76
2023/10/22 07:30:45;;;;;;;2.65;1.60;;;;;;;19.22;55.04;100276.91;5044135;28;20689;-76
2023/10/22 07:33:11;;;;;;;2.65;1.30;;;;;;;19.40;55.28;100310.75;5029404;28;20021;-77
2023/10/22 07:35:36;;;;;;;3.80;1.42;;;;;;;19.31;55.18;100299.22;5058952;28;20025;-76
2023/10/22 07:38:01;;;;;;;2.90;1.77;;;;;;;19.39;55.02;100307.22;5046266;28;20103;-77
2023/10/22 07:40:27;;;;;;;2.22;1.33;;;;;;;19.39;55.30;100315.31;5058184;28;20033;-76
2023/10/22 07:42:53;;;;;;;2.85;1.60;;;;;;;19.40;55.36;100324.22;5061554;28;20048;-76
2023/10/22 07:45:18;;;;;;;2.63;1.58;;;;;;;19.39;55.11;100327.94;5062952;28;20044;-76
2023/10/22 07:47:44;;;;;;;1.85;1.50;;;;;;;19.12;55.05;100276.38;5064010;28;20032;-77
2023/10/22 07:50:09;;;;;;;2.78;1.45;;;;;;;19.40;54.96;100326.91;5063225;28;20037;-75
2023/10/22 07:52:36;;;;;;;3.13;1.85;;;;;;;19.34;55.39;100322.28;5062017;28;20033;-76
2023/10/22 07:55:01;;;;;;;2.92;1.77;;;;;;;19.31;54.65;100323.47;5042039;28;20135;-77
2023/10/22 07:57:27;;;;;;;8.77;1.52;;;;;;;19.42;55.33;100341.91;5045445;28;20028;-77
2023/10/22 07:59:53;;;;;;;2.92;1.48;;;;;;;19.41;55.29;100339.38;5045134;28;20556;-77
2023/10/22 08:02:18;;;;;;;2.35;1.67;;;;;;;19.45;55.29;100351.47;5042898;28;20047;-77
2023/10/22 08:04:44;;;;;;;4.80;1.70;;;;;;;19.44;55.15;100353.31;5040800;28;20455;-78
2023/10/22 08:07:09;;;;;;;2.53;1.52;;;;;;;19.45;55.33;100354.16;5043747;28;20031;-77
2023/10/22 08:09:34;;;;;;;4.28;1.77;;;;;;;19.14;55.28;100303.94;5061107;28;20036;-76
2023/10/22 08:11:59;;;;;;;2.42;1.63;;;;;;;19.43;55.13;100350.81;5041791;28;20113;-78
2023/10/22 08:14:25;;;;;;;3.60;1.65;;;;;;;19.53;55.53;100369.41;5045288;28;20063;-77
2023/10/22 08:16:50;;;;;;;4.35;1.40;;;;;;;19.55;55.15;100370.06;5062521;28;20984;-76
2023/10/22 08:19:16;;;;;;;3.22;1.95;;;;;;;19.57;55.44;100378.81;5061466;28;20048;-76
2023/10/22 08:21:41;;;;;;;2.95;1.55;;;;;;;19.44;55.51;100350.63;5058375;28;20036;-78
2023/10/22 08:24:07;;;;;;;3.50;1.60;;;;;;;19.48;55.45;100362.72;5043753;28;20020;-78
2023/10/22 08:26:32;;;;;;;3.92;2.10;;;;;;;19.61;55.40;100380.97;5061982;28;20053;-77
2023/10/22 08:28:57;;;;;;;3.42;1.70;;;;;;;19.64;55.29;100390.56;5063334;28;20674;-78
2023/10/22 08:31:23;;;;;;;3.38;2.25;;;;;;;19.46;55.18;100363.94;5040685;28;20125;-78
2023/10/22 08:33:48;;;;;;;3.25;1.70;;;;;;;19.61;55.20;100382.84;5043568;28;20028;-78
2023/10/22 08:36:15;;;;;;;3.03;1.67;;;;;;;19.68;54.91;100390.00;5043492;28;20029;-78
2023/10/22 08:38:40;;;;;;;4.63;1.65;;;;;;;19.71;54.77;100402.28;5058428;28;20028;-78
2023/10/22 08:41:11;;;;;;;4.43;1.63;;;;;;;19.66;54.84;100391.19;5058962;28;20031;-77
2023/10/22 08:43:38;;;;;;;4.90;2.90;;;;;;;19.73;55.07;100405.63;5026497;28;20044;-78
2023/10/22 08:46:04;;;;;;;3.38;1.85;;;;;;;19.49;54.67;100371.63;5060541;28;20060;-77
2023/10/22 08:48:29;;;;;;;4.82;2.10;;;;;;;19.77;54.93;100408.78;5043116;28;20044;-77
2023/10/22 08:50:56;;;;;;;4.70;1.88;;;;;;;19.78;54.70;100419.38;5041251;28;20029;-77
2023/10/22 08:53:22;;;;;;;4.10;2.20;;;;;;;19.72;54.67;100409.34;5039493;28;20174;-77
2023/10/22 08:55:47;;;;;;;4.95;2.60;;;;;;;19.81;54.46;100426.28;5044336;28;20474;-77
2023/10/22 08:58:18;;;;;;;4.70;2.25;;;;;;;19.56;54.27;100393.31;5027547;28;20024;-78
2023/10/22 09:00:45;;;;;;;3.92;2.08;;;;;;;19.84;54.52;100436.69;5055410;28;20025;-78
2023/10/22 09:03:12;;;;;;;3.20;1.77;;;;;;;19.59;54.05;100393.78;5060781;28;20028;-77
2023/10/22 09:05:39;;;;;;;3.15;1.38;;;;;;;19.87;54.40;100442.53;5063008;28;20085;-77
2023/10/22 09:08:04;;;;;;;2.97;2.00;;;;;;;19.88;54.66;100440.69;5065261;28;20108;-78
2023/10/22 09:10:31;;;;;;;4.57;2.08;;;;;;;19.62;54.00;100406.06;5047251;28;20138;-77
2023/10/22 09:13:29;;;;;;;2.80;1.70;;;;;;;19.92;54.18;100460.88;5046519;28;20032;-78
2023/10/22 09:15:54;;;;;;;5.60;1.80;;;;;;;19.72;53.98;100420.13;5010368;28;20232;-79
2023/10/22 09:18:20;;;;;;;4.82;1.77;;;;;;;19.95;54.02;100464.03;5066027;28;20482;-78
2023/10/22 09:20:46;;;;;;;3.08;1.67;;;;;;;19.71;54.04;100432.78;5065576;28;20037;-77
2023/10/22 09:23:14;;;;;;;4.85;1.80;;;;;;;19.98;54.07;100476.31;5048906;28;20024;-78
2023/10/22 09:25:40;;;;;;;4.38;1.75;;;;;;;19.82;54.12;100453.06;5045790;28;20024;-78
2023/10/22 09:28:16;;;;;;;4.68;1.88;;;;;;;20.02;53.91;100484.91;5046147;28;20020;-77
2023/10/22 09:30:42;;;;;;;2.60;1.40;;;;;;;20.01;53.76;100475.09;5065869;28;20479;-78
2023/10/22 09:33:08;;;;;;;2.80;1.50;;;;;;;19.87;53.78;100452.50;5063325;28;20081;-78
2023/10/22 09:35:35;;;;;;;2.90;1.92;;;;;;;20.10;53.65;100485.63;5046480;28;20027;-78
2023/10/22 09:38:00;;;;;;;2.33;1.40;;;;;;;20.13;53.64;100484.41;5063688;28;20029;-78
2023/10/22 09:40:26;;;;;;;2.55;1.60;;;;;;;20.15;53.38;100488.59;5047222;28;20032;-78
2023/10/22 09:42:52;;;;;;;3.53;1.75;;;;;;;19.99;53.67;100459.09;5048742;28;20037;-78
2023/10/22 09:45:17;;;;;;;4.60;2.33;;;;;;;20.20;53.41;100491.56;5062050;28;20029;-78
2023/10/22 09:47:45;;;;;;;4.22;1.70;;;;;;;20.23;53.55;100495.78;5048382;28;20049;-78
2023/10/22 09:50:12;;;;;;;2.75;1.42;;;;;;;20.13;53.43;100473.59;5062292;28;20749;-77
2023/10/22 09:52:42;;;;;;;2.78;1.48;;;;;;;20.21;53.44;100481.63;5029426;28;20244;-78
2023/10/22 09:55:12;;;;;;;3.72;1.73;;;;;;;20.33;53.41;100493.59;5059956;28;20017;-78
2023/10/22 09:57:39;;;;;;;3.45;1.45;;;;;;;20.37;53.04;100505.72;5062149;28;20037;-78
2023/10/22 10:00:10;;;;;;;2.65;1.60;;;;;;;20.33;53.06;100500.88;5063149;28;20052;-78
2023/10/22 10:02:35;;;;;;;2.45;1.58;;;;;;;20.38;53.21;100503.84;5064035;28;20040;-78
2023/10/22 10:05:02;;;;;;;2.83;1.80;;;;;;;20.41;52.95;100498.06;5065396;28;20033;-78
2023/10/22 10:07:28;;;;;;;3.22;2.00;;;;;;;20.41;52.89;100498.06;5045577;28;20070;-78
2023/10/22 10:09:55;;;;;;;3.00;1.40;;;;;;;20.51;52.63;100511.31;5046877;28;20049;-77
2023/10/22 10:12:23;;;;;;;2.92;1.25;;;;;;;20.53;52.69;100517.38;5031840;28;20525;-77
2023/10/22 10:14:49;;;;;;;2.75;1.77;;;;;;;20.56;52.47;100506.16;5044516;28;20510;-77
2023/10/22 10:17:17;;;;;;;3.05;1.48;;;;;;;20.34;52.58;100470.16;5061134;28;20128;-77
2023/10/22 10:19:42;;;;;;;2.95;1.50;;;;;;;20.62;52.36;100521.63;5047453;28;20028;-77
2023/10/22 10:22:08;;;;;;;2.55;1.70;;;;;;;20.64;52.48;100523.09;5062489;28;20037;-76
2023/10/22 10:24:34;;;;;;;2.50;1.52;;;;;;;20.40;52.74;100472.94;5046831;28;20108;-76
2023/10/22 10:26:59;;;;;;;2.75;1.40;;;;;;;20.66;52.83;100515.66;5028001;28;20025;-76
2023/10/22 10:29:31;;;;;;;3.65;1.17;;;;;;;20.77;52.59;100521.59;5045487;28;20029;-75
2023/10/22 10:32:17;;;;;;;3.63;1.48;;;;;;;20.84;52.71;100531.44;5046123;28;20036;-75
2023/10/22 10:34:44;;;;;;;2.42;1.38;;;;;;;20.85;52.39;100519.59;5043198;28;20033;-76
2023/10/22 10:37:10;;;;;;;2.58;1.40;;;;;;;20.95;52.80;100530.13;5045809;28;20585;-78
2023/10/22 10:39:38;;;;;;;2.88;1.33;;;;;;;20.99;52.51;100530.59;5044354;28;20120;-78
2023/10/22 10:42:04;;;;;;;3.47;1.67;;;;;;;21.01;52.42;100533.94;5062047;28;20025;-77
2023/10/22 10:44:29;;;;;;;3.30;1.50;;;;;;;20.89;52.75;100511.97;5062418;28;20032;-76
2023/10/22 10:47:12;;;;;;;2.50;1.55;;;;;;;21.08;52.36;100532.97;5061122;28;20025;-76
2023/10/22 10:50:05;;;;;;;3.10;1.35;;;;;;;21.22;52.07;100540.19;5044728;28;20040;-77
2023/10/22 10:52:42;;;;;;;12.63;2.40;;;;;;;21.31;52.09;100545.47;5062908;28;20029;-76
2023/10/22 10:55:14;;;;;;;3.10;1.30;;;;;;;21.22;51.70;100526.66;5063155;28;20056;-76
2023/10/22 10:57:41;;;;;;;5.15;1.40;;;;;;;21.32;51.85;100533.63;5064858;28;20028;-75
2023/10/22 11:00:16;;;;;;;3.20;1.55;;;;;;;21.35;52.04;100528.69;5061442;28;20031;-77
2023/10/22 11:02:43;;;;;;;2.25;1.23;;;;;;;21.48;51.80;100541.50;5035601;28;20023;-76
2023/10/22 11:05:09;;;;;;;3.38;1.48;;;;;;;21.23;51.69;100504.00;5034308;28;20025;-75
2023/10/22 11:07:35;;;;;;;3.20;1.20;;;;;;;21.51;51.92;100549.22;5045401;28;20044;-76
2023/10/22 11:10:10;;;;;;;5.15;1.40;;;;;;;21.27;51.50;100509.03;5043622;28;20778;-76
2023/10/22 11:12:39;;;;;;;3.30;1.35;;;;;;;21.51;51.48;100551.94;5042941;28;20036;-76
2023/10/22 11:15:05;;;;;;;;;;;;;;;21.53;51.57;100559.84;5060469;28;20025;-75
2023/10/22 11:17:31;;;;;;;2.72;1.20;;;;;;;21.51;51.55;100557.34;5063624;28;19924;-76
2023/10/22 11:19:57;;;;;;;1.83;1.13;;;;;;;21.44;51.81;100545.63;5047339;28;20025;-76
2023/10/22 11:22:23;;;;;;;3.45;0.98;;;;;;;21.51;51.75;100559.22;5043834;28;20044;-76
2023/10/22 11:24:49;;;;;;;3.35;1.38;;;;;;;21.32;51.79;100530.94;5046303;28;20029;-76